sensor_id;sensor_type;location;lat;lon;timestamp;P1;durP1;ratioP1;P2;durP2;ratioP2
52456;SDS011;38369;52.840;7.082;2023-03-05T00:01:04;11.05;;;3.17;;
52456;SDS011;38369;52.840;7.082;2023-03-05T00:03:30;5.43;;;3.30;;
52456;SDS011;38369;52.840;7.082;2023-03-05T00:05:57;11.02;;;3.05;;
52456;SDS011;38369;52.840;7.082;2023-03-05T00:08:23;8.38;;;2.70;;
52456;SDS011;38369;52.840;7.082;2023-03-05T00:10:59;7.05;;;3.08;;
52456;SDS011;38369;52.840;7.082;2023-03-05T00:13:25;8.75;;;2.83;;
52456;SDS011;38369;52.840;7.082;2023-03-05T00:15:51;10.77;;;3.20;;
52456;SDS011;38369;52.840;7.082;2023-03-05T00:18:17;11.70;;;3.78;;
52456;SDS011;38369;52.840;7.082;2023-03-05T00:20:43;7.18;;;2.80;;
52456;SDS011;38369;52.840;7.082;2023-03-05T00:23:10;8.27;;;2.60;;
52456;SDS011;38369;52.840;7.082;2023-03-05T00:25:36;7.55;;;2.88;;
52456;SDS011;38369;52.840;7.082;2023-03-05T00:28:03;12.10;;;3.10;;
52456;SDS011;38369;52.840;7.082;2023-03-05T00:30:32;5.40;;;2.42;;
52456;SDS011;38369;52.840;7.082;2023-03-05T00:32:58;6.25;;;3.13;;
52456;SDS011;38369;52.840;7.082;2023-03-05T00:35:25;6.82;;;2.20;;
52456;SDS011;38369;52.840;7.082;2023-03-05T00:37:51;7.00;;;2.10;;
52456;SDS011;38369;52.840;7.082;2023-03-05T00:40:18;7.85;;;2.30;;
52456;SDS011;38369;52.840;7.082;2023-03-05T00:42:44;6.97;;;2.83;;
52456;SDS011;38369;52.840;7.082;2023-03-05T00:45:10;7.07;;;2.22;;
52456;SDS011;38369;52.840;7.082;2023-03-05T00:47:37;7.00;;;2.95;;
52456;SDS011;38369;52.840;7.082;2023-03-05T00:50:05;5.82;;;2.00;;
52456;SDS011;38369;52.840;7.082;2023-03-05T00:52:31;5.25;;;2.78;;
52456;SDS011;38369;52.840;7.082;2023-03-05T00:54:57;9.43;;;3.00;;
52456;SDS011;38369;52.840;7.082;2023-03-05T00:57:23;6.25;;;2.20;;
52456;SDS011;38369;52.840;7.082;2023-03-05T00:59:49;7.60;;;2.28;;
52456;SDS011;38369;52.840;7.082;2023-03-05T01:02:16;6.65;;;2.90;;
52456;SDS011;38369;52.840;7.082;2023-03-05T01:04:42;6.38;;;3.17;;
52456;SDS011;38369;52.840;7.082;2023-03-05T01:07:11;8.52;;;2.83;;
52456;SDS011;38369;52.840;7.082;2023-03-05T01:09:37;6.93;;;2.60;;
52456;SDS011;38369;52.840;7.082;2023-03-05T01:12:03;11.55;;;3.13;;
52456;SDS011;38369;52.840;7.082;2023-03-05T01:14:29;11.02;;;2.53;;
52456;SDS011;38369;52.840;7.082;2023-03-05T01:16:56;6.28;;;2.70;;
52456;SDS011;38369;52.840;7.082;2023-03-05T01:19:22;6.13;;;2.85;;
52456;SDS011;38369;52.840;7.082;2023-03-05T01:21:48;5.90;;;2.83;;
52456;SDS011;38369;52.840;7.082;2023-03-05T01:24:14;9.65;;;2.60;;
52456;SDS011;38369;52.840;7.082;2023-03-05T01:26:40;6.07;;;2.78;;
52456;SDS011;38369;52.840;7.082;2023-03-05T01:29:06;6.30;;;2.58;;
52456;SDS011;38369;52.840;7.082;2023-03-05T01:31:32;5.80;;;2.55;;
52456;SDS011;38369;52.840;7.082;2023-03-05T01:33:58;9.10;;;2.28;;
52456;SDS011;38369;52.840;7.082;2023-03-05T01:36:24;6.70;;;2.35;;
52456;SDS011;38369;52.840;7.082;2023-03-05T01:38:50;8.10;;;2.80;;
52456;SDS011;38369;52.840;7.082;2023-03-05T01:41:17;9.95;;;3.53;;
52456;SDS011;38369;52.840;7.082;2023-03-05T01:43:44;7.53;;;3.00;;
52456;SDS011;38369;52.840;7.082;2023-03-05T01:48:45;6.35;;;2.47;;
52456;SDS011;38369;52.840;7.082;2023-03-05T01:51:12;7.75;;;2.60;;
52456;SDS011;38369;52.840;7.082;2023-03-05T01:53:38;6.65;;;2.20;;
52456;SDS011;38369;52.840;7.082;2023-03-05T01:56:04;3.80;;;2.05;;
52456;SDS011;38369;52.840;7.082;2023-03-05T01:58:31;6.68;;;2.53;;
52456;SDS011;38369;52.840;7.082;2023-03-05T02:00:57;7.15;;;2.30;;
52456;SDS011;38369;52.840;7.082;2023-03-05T02:03:23;12.65;;;2.60;;
52456;SDS011;38369;52.840;7.082;2023-03-05T02:05:50;6.55;;;3.22;;
52456;SDS011;38369;52.840;7.082;2023-03-05T02:08:17;5.32;;;2.00;;
52456;SDS011;38369;52.840;7.082;2023-03-05T02:10:44;11.75;;;3.03;;
52456;SDS011;38369;52.840;7.082;2023-03-05T02:13:12;8.82;;;2.53;;
52456;SDS011;38369;52.840;7.082;2023-03-05T02:15:39;2.80;;;1.85;;
52456;SDS011;38369;52.840;7.082;2023-03-05T02:18:06;7.28;;;2.70;;
52456;SDS011;38369;52.840;7.082;2023-03-05T02:20:43;3.78;;;1.90;;
52456;SDS011;38369;52.840;7.082;2023-03-05T02:23:09;7.95;;;2.47;;
52456;SDS011;38369;52.840;7.082;2023-03-05T02:25:35;8.70;;;2.20;;
52456;SDS011;38369;52.840;7.082;2023-03-05T02:28:06;6.43;;;2.00;;
52456;SDS011;38369;52.840;7.082;2023-03-05T02:30:33;4.85;;;2.10;;
52456;SDS011;38369;52.840;7.082;2023-03-05T02:33:00;6.95;;;1.83;;
52456;SDS011;38369;52.840;7.082;2023-03-05T02:35:26;7.10;;;2.25;;
52456;SDS011;38369;52.840;7.082;2023-03-05T02:37:52;10.68;;;2.50;;
52456;SDS011;38369;52.840;7.082;2023-03-05T02:40:18;2.55;;;1.60;;
52456;SDS011;38369;52.840;7.082;2023-03-05T02:42:44;5.32;;;1.77;;
52456;SDS011;38369;52.840;7.082;2023-03-05T02:45:11;5.47;;;2.08;;
52456;SDS011;38369;52.840;7.082;2023-03-05T02:47:37;11.95;;;3.25;;
52456;SDS011;38369;52.840;7.082;2023-03-05T02:50:03;7.25;;;2.10;;
52456;SDS011;38369;52.840;7.082;2023-03-05T02:52:30;4.40;;;2.00;;
52456;SDS011;38369;52.840;7.082;2023-03-05T02:54:56;6.18;;;1.83;;
52456;SDS011;38369;52.840;7.082;2023-03-05T02:57:22;8.73;;;3.22;;
52456;SDS011;38369;52.840;7.082;2023-03-05T02:59:49;7.82;;;2.40;;
52456;SDS011;38369;52.840;7.082;2023-03-05T03:02:15;4.72;;;2.63;;
52456;SDS011;38369;52.840;7.082;2023-03-05T03:04:41;9.50;;;2.47;;
52456;SDS011;38369;52.840;7.082;2023-03-05T03:07:08;5.60;;;2.65;;
52456;SDS011;38369;52.840;7.082;2023-03-05T03:09:34;9.25;;;2.53;;
52456;SDS011;38369;52.840;7.082;2023-03-05T03:12:00;7.00;;;4.25;;
52456;SDS011;38369;52.840;7.082;2023-03-05T03:14:29;6.15;;;2.70;;
52456;SDS011;38369;52.840;7.082;2023-03-05T03:16:55;6.78;;;2.47;;
52456;SDS011;38369;52.840;7.082;2023-03-05T03:19:21;6.35;;;2.60;;
52456;SDS011;38369;52.840;7.082;2023-03-05T03:21:47;8.18;;;2.67;;
52456;SDS011;38369;52.840;7.082;2023-03-05T03:24:14;9.20;;;3.78;;
52456;SDS011;38369;52.840;7.082;2023-03-05T03:26:40;7.93;;;2.80;;
52456;SDS011;38369;52.840;7.082;2023-03-05T03:29:06;11.02;;;2.92;;
52456;SDS011;38369;52.840;7.082;2023-03-05T03:31:32;7.40;;;3.05;;
52456;SDS011;38369;52.840;7.082;2023-03-05T03:33:58;6.35;;;2.90;;
52456;SDS011;38369;52.840;7.082;2023-03-05T03:36:24;9.25;;;2.95;;
52456;SDS011;38369;52.840;7.082;2023-03-05T03:38:51;11.95;;;2.95;;
52456;SDS011;38369;52.840;7.082;2023-03-05T03:41:17;10.25;;;3.08;;
52456;SDS011;38369;52.840;7.082;2023-03-05T03:43:43;5.47;;;2.50;;
52456;SDS011;38369;52.840;7.082;2023-03-05T03:46:09;9.00;;;3.00;;
52456;SDS011;38369;52.840;7.082;2023-03-05T03:48:35;6.22;;;2.50;;
52456;SDS011;38369;52.840;7.082;2023-03-05T03:51:02;5.97;;;2.40;;
52456;SDS011;38369;52.840;7.082;2023-03-05T03:53:28;8.00;;;2.90;;
52456;SDS011;38369;52.840;7.082;2023-03-05T03:55:58;11.55;;;2.75;;
52456;SDS011;38369;52.840;7.082;2023-03-05T03:58:24;6.25;;;2.70;;
52456;SDS011;38369;52.840;7.082;2023-03-05T04:00:50;10.63;;;3.92;;
52456;SDS011;38369;52.840;7.082;2023-03-05T04:03:16;10.25;;;2.80;;
52456;SDS011;38369;52.840;7.082;2023-03-05T04:05:42;11.52;;;2.42;;
52456;SDS011;38369;52.840;7.082;2023-03-05T04:08:08;5.32;;;2.67;;
52456;SDS011;38369;52.840;7.082;2023-03-05T04:10:39;8.45;;;3.40;;
52456;SDS011;38369;52.840;7.082;2023-03-05T04:13:05;5.43;;;2.60;;
52456;SDS011;38369;52.840;7.082;2023-03-05T04:15:32;6.68;;;2.60;;
52456;SDS011;38369;52.840;7.082;2023-03-05T04:17:58;14.52;;;2.85;;
52456;SDS011;38369;52.840;7.082;2023-03-05T04:20:25;7.00;;;3.17;;
52456;SDS011;38369;52.840;7.082;2023-03-05T04:22:51;9.68;;;2.90;;
52456;SDS011;38369;52.840;7.082;2023-03-05T04:25:17;7.32;;;3.17;;
52456;SDS011;38369;52.840;7.082;2023-03-05T04:27:43;8.65;;;3.20;;
52456;SDS011;38369;52.840;7.082;2023-03-05T04:30:10;9.70;;;3.17;;
52456;SDS011;38369;52.840;7.082;2023-03-05T04:32:39;12.40;;;4.18;;
52456;SDS011;38369;52.840;7.082;2023-03-05T04:35:05;7.70;;;3.65;;
52456;SDS011;38369;52.840;7.082;2023-03-05T04:37:31;8.23;;;3.05;;
52456;SDS011;38369;52.840;7.082;2023-03-05T04:39:57;4.18;;;2.90;;
52456;SDS011;38369;52.840;7.082;2023-03-05T04:42:24;11.32;;;2.67;;
52456;SDS011;38369;52.840;7.082;2023-03-05T04:44:50;10.48;;;3.53;;
52456;SDS011;38369;52.840;7.082;2023-03-05T04:47:16;13.10;;;3.05;;
52456;SDS011;38369;52.840;7.082;2023-03-05T04:49:43;9.70;;;3.10;;
52456;SDS011;38369;52.840;7.082;2023-03-05T04:52:10;7.30;;;2.72;;
52456;SDS011;38369;52.840;7.082;2023-03-05T04:54:36;9.50;;;3.40;;
52456;SDS011;38369;52.840;7.082;2023-03-05T04:57:02;5.97;;;2.63;;
52456;SDS011;38369;52.840;7.082;2023-03-05T04:59:29;7.75;;;3.67;;
52456;SDS011;38369;52.840;7.082;2023-03-05T05:01:55;9.90;;;4.13;;
52456;SDS011;38369;52.840;7.082;2023-03-05T05:04:21;9.75;;;3.33;;
52456;SDS011;38369;52.840;7.082;2023-03-05T05:06:47;7.90;;;2.72;;
52456;SDS011;38369;52.840;7.082;2023-03-05T05:09:13;9.25;;;3.05;;
52456;SDS011;38369;52.840;7.082;2023-03-05T05:11:39;10.75;;;2.95;;
52456;SDS011;38369;52.840;7.082;2023-03-05T05:14:05;6.00;;;2.90;;
52456;SDS011;38369;52.840;7.082;2023-03-05T05:16:32;8.43;;;3.10;;
52456;SDS011;38369;52.840;7.082;2023-03-05T05:18:58;6.32;;;2.67;;
52456;SDS011;38369;52.840;7.082;2023-03-05T05:21:24;10.30;;;3.00;;
52456;SDS011;38369;52.840;7.082;2023-03-05T05:23:50;4.00;;;2.00;;
52456;SDS011;38369;52.840;7.082;2023-03-05T05:26:16;9.60;;;2.63;;
52456;SDS011;38369;52.840;7.082;2023-03-05T05:28:42;8.25;;;3.10;;
52456;SDS011;38369;52.840;7.082;2023-03-05T05:31:09;5.57;;;2.60;;
52456;SDS011;38369;52.840;7.082;2023-03-05T05:33:35;7.78;;;2.80;;
52456;SDS011;38369;52.840;7.082;2023-03-05T05:36:05;11.43;;;3.20;;
52456;SDS011;38369;52.840;7.082;2023-03-05T05:38:32;16.85;;;3.25;;
52456;SDS011;38369;52.840;7.082;2023-03-05T05:41:05;9.55;;;3.58;;
52456;SDS011;38369;52.840;7.082;2023-03-05T05:43:32;5.45;;;2.47;;
52456;SDS011;38369;52.840;7.082;2023-03-05T05:46:01;11.00;;;3.17;;
52456;SDS011;38369;52.840;7.082;2023-03-05T05:48:29;5.47;;;2.67;;
52456;SDS011;38369;52.840;7.082;2023-03-05T05:50:55;8.65;;;2.20;;
52456;SDS011;38369;52.840;7.082;2023-03-05T05:53:21;8.70;;;3.35;;
52456;SDS011;38369;52.840;7.082;2023-03-05T05:55:47;6.22;;;2.13;;
52456;SDS011;38369;52.840;7.082;2023-03-05T05:58:13;11.38;;;2.72;;
52456;SDS011;38369;52.840;7.082;2023-03-05T06:00:40;7.38;;;2.28;;
52456;SDS011;38369;52.840;7.082;2023-03-05T06:03:06;6.80;;;2.35;;
52456;SDS011;38369;52.840;7.082;2023-03-05T06:05:32;7.60;;;2.08;;
52456;SDS011;38369;52.840;7.082;2023-03-05T06:07:58;7.18;;;2.20;;
52456;SDS011;38369;52.840;7.082;2023-03-05T06:10:25;8.07;;;3.38;;
52456;SDS011;38369;52.840;7.082;2023-03-05T06:12:51;7.22;;;2.50;;
52456;SDS011;38369;52.840;7.082;2023-03-05T06:15:17;5.45;;;2.10;;
52456;SDS011;38369;52.840;7.082;2023-03-05T06:17:44;5.15;;;2.22;;
52456;SDS011;38369;52.840;7.082;2023-03-05T06:20:11;3.83;;;1.83;;
52456;SDS011;38369;52.840;7.082;2023-03-05T06:22:38;7.00;;;2.13;;
52456;SDS011;38369;52.840;7.082;2023-03-05T06:25:05;3.05;;;2.13;;
52456;SDS011;38369;52.840;7.082;2023-03-05T06:27:31;8.15;;;2.28;;
52456;SDS011;38369;52.840;7.082;2023-03-05T06:29:57;5.22;;;2.42;;
52456;SDS011;38369;52.840;7.082;2023-03-05T06:32:23;3.83;;;1.83;;
52456;SDS011;38369;52.840;7.082;2023-03-05T06:34:49;6.45;;;2.00;;
52456;SDS011;38369;52.840;7.082;2023-03-05T06:37:15;5.45;;;2.47;;
52456;SDS011;38369;52.840;7.082;2023-03-05T06:39:41;8.90;;;2.33;;
52456;SDS011;38369;52.840;7.082;2023-03-05T06:42:07;3.90;;;1.80;;
52456;SDS011;38369;52.840;7.082;2023-03-05T06:44:36;6.72;;;2.13;;
52456;SDS011;38369;52.840;7.082;2023-03-05T06:47:03;5.75;;;1.77;;
52456;SDS011;38369;52.840;7.082;2023-03-05T06:49:29;2.45;;;1.75;;
52456;SDS011;38369;52.840;7.082;2023-03-05T06:51:55;4.03;;;1.55;;
52456;SDS011;38369;52.840;7.082;2023-03-05T06:54:21;3.08;;;1.33;;
52456;SDS011;38369;52.840;7.082;2023-03-05T06:56:47;3.05;;;1.50;;
52456;SDS011;38369;52.840;7.082;2023-03-05T06:59:14;5.75;;;1.77;;
52456;SDS011;38369;52.840;7.082;2023-03-05T07:01:41;6.20;;;1.75;;
52456;SDS011;38369;52.840;7.082;2023-03-05T07:04:08;4.40;;;1.88;;
52456;SDS011;38369;52.840;7.082;2023-03-05T07:06:35;1.52;;;1.25;;
52456;SDS011;38369;52.840;7.082;2023-03-05T07:09:03;8.38;;;1.90;;
52456;SDS011;38369;52.840;7.082;2023-03-05T07:11:29;5.50;;;2.08;;
52456;SDS011;38369;52.840;7.082;2023-03-05T07:13:55;4.72;;;1.70;;
52456;SDS011;38369;52.840;7.082;2023-03-05T07:16:22;5.85;;;1.90;;
52456;SDS011;38369;52.840;7.082;2023-03-05T07:18:48;3.92;;;2.00;;
52456;SDS011;38369;52.840;7.082;2023-03-05T07:21:15;4.15;;;2.83;;
52456;SDS011;38369;52.840;7.082;2023-03-05T07:23:42;5.47;;;2.00;;
52456;SDS011;38369;52.840;7.082;2023-03-05T07:26:09;4.40;;;1.85;;
52456;SDS011;38369;52.840;7.082;2023-03-05T07:28:35;2.70;;;1.65;;
52456;SDS011;38369;52.840;7.082;2023-03-05T07:31:02;4.53;;;2.55;;
52456;SDS011;38369;52.840;7.082;2023-03-05T07:33:28;3.25;;;1.80;;
52456;SDS011;38369;52.840;7.082;2023-03-05T07:35:55;11.55;;;2.10;;
52456;SDS011;38369;52.840;7.082;2023-03-05T07:38:21;7.20;;;1.80;;
52456;SDS011;38369;52.840;7.082;2023-03-05T07:40:47;3.30;;;2.00;;
52456;SDS011;38369;52.840;7.082;2023-03-05T07:43:13;5.55;;;1.52;;
52456;SDS011;38369;52.840;7.082;2023-03-05T07:45:40;6.78;;;2.40;;
52456;SDS011;38369;52.840;7.082;2023-03-05T07:48:07;5.75;;;1.90;;
52456;SDS011;38369;52.840;7.082;2023-03-05T07:50:33;6.95;;;2.30;;
52456;SDS011;38369;52.840;7.082;2023-03-05T07:52:59;8.00;;;2.17;;
52456;SDS011;38369;52.840;7.082;2023-03-05T07:55:25;6.13;;;3.03;;
52456;SDS011;38369;52.840;7.082;2023-03-05T07:57:51;6.30;;;2.17;;
52456;SDS011;38369;52.840;7.082;2023-03-05T08:00:17;4.80;;;1.90;;
52456;SDS011;38369;52.840;7.082;2023-03-05T08:02:43;6.22;;;2.00;;
52456;SDS011;38369;52.840;7.082;2023-03-05T08:05:10;7.50;;;2.33;;
52456;SDS011;38369;52.840;7.082;2023-03-05T08:07:36;5.50;;;2.35;;
52456;SDS011;38369;52.840;7.082;2023-03-05T08:10:03;3.50;;;1.85;;
52456;SDS011;38369;52.840;7.082;2023-03-05T08:12:29;7.60;;;3.28;;
52456;SDS011;38369;52.840;7.082;2023-03-05T08:14:55;4.30;;;1.70;;
52456;SDS011;38369;52.840;7.082;2023-03-05T08:17:21;3.13;;;1.70;;
52456;SDS011;38369;52.840;7.082;2023-03-05T08:19:47;13.20;;;2.08;;
52456;SDS011;38369;52.840;7.082;2023-03-05T08:22:14;4.95;;;2.42;;
52456;SDS011;38369;52.840;7.082;2023-03-05T08:24:41;7.25;;;2.00;;
52456;SDS011;38369;52.840;7.082;2023-03-05T08:27:08;3.60;;;1.88;;
52456;SDS011;38369;52.840;7.082;2023-03-05T08:29:34;4.78;;;2.17;;
52456;SDS011;38369;52.840;7.082;2023-03-05T08:32:00;14.73;;;2.20;;
52456;SDS011;38369;52.840;7.082;2023-03-05T08:34:26;6.47;;;1.95;;
52456;SDS011;38369;52.840;7.082;2023-03-05T08:36:52;2.72;;;1.95;;
52456;SDS011;38369;52.840;7.082;2023-03-05T08:39:18;3.65;;;1.90;;
52456;SDS011;38369;52.840;7.082;2023-03-05T08:41:44;10.18;;;2.10;;
52456;SDS011;38369;52.840;7.082;2023-03-05T08:44:10;8.77;;;2.70;;
52456;SDS011;38369;52.840;7.082;2023-03-05T08:46:39;4.63;;;1.83;;
52456;SDS011;38369;52.840;7.082;2023-03-05T08:49:06;4.85;;;1.90;;
52456;SDS011;38369;52.840;7.082;2023-03-05T08:51:33;5.47;;;2.00;;
52456;SDS011;38369;52.840;7.082;2023-03-05T08:54:00;6.95;;;2.25;;
52456;SDS011;38369;52.840;7.082;2023-03-05T08:56:27;6.88;;;2.95;;
52456;SDS011;38369;52.840;7.082;2023-03-05T08:58:55;6.60;;;2.22;;
52456;SDS011;38369;52.840;7.082;2023-03-05T09:01:21;5.18;;;1.83;;
52456;SDS011;38369;52.840;7.082;2023-03-05T09:03:48;4.63;;;1.75;;
52456;SDS011;38369;52.840;7.082;2023-03-05T09:06:14;7.88;;;1.85;;
52456;SDS011;38369;52.840;7.082;2023-03-05T09:08:40;10.25;;;2.03;;
52456;SDS011;38369;52.840;7.082;2023-03-05T09:11:07;8.00;;;2.20;;
52456;SDS011;38369;52.840;7.082;2023-03-05T09:13:33;6.32;;;2.00;;
52456;SDS011;38369;52.840;7.082;2023-03-05T09:16:00;11.02;;;2.58;;
52456;SDS011;38369;52.840;7.082;2023-03-05T09:18:27;5.32;;;1.67;;
52456;SDS011;38369;52.840;7.082;2023-03-05T09:20:53;10.38;;;1.90;;
52456;SDS011;38369;52.840;7.082;2023-03-05T09:23:19;6.65;;;1.77;;
52456;SDS011;38369;52.840;7.082;2023-03-05T09:25:45;7.57;;;2.28;;
52456;SDS011;38369;52.840;7.082;2023-03-05T09:28:11;5.03;;;1.80;;
52456;SDS011;38369;52.840;7.082;2023-03-05T09:30:37;5.95;;;1.83;;
52456;SDS011;38369;52.840;7.082;2023-03-05T09:33:04;4.85;;;1.70;;
52456;SDS011;38369;52.840;7.082;2023-03-05T09:35:32;5.35;;;2.08;;
52456;SDS011;38369;52.840;7.082;2023-03-05T09:37:59;7.10;;;2.38;;
52456;SDS011;38369;52.840;7.082;2023-03-05T09:40:25;5.50;;;1.67;;
52456;SDS011;38369;52.840;7.082;2023-03-05T09:43:04;9.88;;;1.75;;
52456;SDS011;38369;52.840;7.082;2023-03-05T09:45:39;5.18;;;1.60;;
52456;SDS011;38369;52.840;7.082;2023-03-05T09:48:19;8.45;;;1.80;;
52456;SDS011;38369;52.840;7.082;2023-03-05T09:55:42;7.05;;;1.92;;
52456;SDS011;38369;52.840;7.082;2023-03-05T09:58:52;6.30;;;1.77;;
52456;SDS011;38369;52.840;7.082;2023-03-05T10:01:07;7.03;;;1.50;;
52456;SDS011;38369;52.840;7.082;2023-03-05T10:06:22;4.53;;;1.52;;
52456;SDS011;38369;52.840;7.082;2023-03-05T10:14:30;6.85;;;2.00;;
52456;SDS011;38369;52.840;7.082;2023-03-05T10:24:47;8.05;;;1.42;;
52456;SDS011;38369;52.840;7.082;2023-03-05T10:27:27;5.80;;;1.75;;
52456;SDS011;38369;52.840;7.082;2023-03-05T10:34:55;3.15;;;1.15;;
52456;SDS011;38369;52.840;7.082;2023-03-05T10:45:25;3.88;;;1.10;;
52456;SDS011;38369;52.840;7.082;2023-03-05T10:50:43;5.95;;;1.40;;
52456;SDS011;38369;52.840;7.082;2023-03-05T10:53:16;7.13;;;1.83;;
52456;SDS011;38369;52.840;7.082;2023-03-05T10:55:43;4.55;;;1.20;;
52456;SDS011;38369;52.840;7.082;2023-03-05T10:58:13;6.82;;;1.50;;
52456;SDS011;38369;52.840;7.082;2023-03-05T11:00:40;5.47;;;1.10;;
52456;SDS011;38369;52.840;7.082;2023-03-05T11:03:08;2.30;;;1.17;;
52456;SDS011;38369;52.840;7.082;2023-03-05T11:08:07;2.15;;;0.80;;
52456;SDS011;38369;52.840;7.082;2023-03-05T11:10:42;3.10;;;1.05;;
52456;SDS011;38369;52.840;7.082;2023-03-05T11:13:25;1.48;;;1.13;;
52456;SDS011;38369;52.840;7.082;2023-03-05T11:16:02;1.27;;;0.80;;
52456;SDS011;38369;52.840;7.082;2023-03-05T11:18:28;1.60;;;0.90;;
52456;SDS011;38369;52.840;7.082;2023-03-05T11:21:18;5.20;;;1.30;;
52456;SDS011;38369;52.840;7.082;2023-03-05T11:24:18;4.50;;;1.10;;
52456;SDS011;38369;52.840;7.082;2023-03-05T11:26:53;2.80;;;0.90;;
52456;SDS011;38369;52.840;7.082;2023-03-05T11:29:23;3.97;;;1.20;;
52456;SDS011;38369;52.840;7.082;2023-03-05T11:31:50;5.43;;;1.70;;
52456;SDS011;38369;52.840;7.082;2023-03-05T11:39:18;2.85;;;1.20;;
52456;SDS011;38369;52.840;7.082;2023-03-05T11:41:57;1.50;;;0.98;;
52456;SDS011;38369;52.840;7.082;2023-03-05T11:44:25;3.10;;;0.90;;
52456;SDS011;38369;52.840;7.082;2023-03-05T11:46:56;4.57;;;1.25;;
52456;SDS011;38369;52.840;7.082;2023-03-05T11:49:25;1.58;;;1.02;;
52456;SDS011;38369;52.840;7.082;2023-03-05T11:54:26;4.88;;;2.08;;
52456;SDS011;38369;52.840;7.082;2023-03-05T11:56:55;3.85;;;1.48;;
52456;SDS011;38369;52.840;7.082;2023-03-05T11:59:24;2.65;;;1.15;;
52456;SDS011;38369;52.840;7.082;2023-03-05T12:01:53;5.68;;;1.23;;
52456;SDS011;38369;52.840;7.082;2023-03-05T12:04:20;3.63;;;1.15;;
52456;SDS011;38369;52.840;7.082;2023-03-05T12:06:47;8.27;;;1.83;;
52456;SDS011;38369;52.840;7.082;2023-03-05T12:09:20;8.10;;;1.50;;
52456;SDS011;38369;52.840;7.082;2023-03-05T12:11:50;4.93;;;1.58;;
52456;SDS011;38369;52.840;7.082;2023-03-05T12:21:48;4.88;;;1.70;;
52456;SDS011;38369;52.840;7.082;2023-03-05T12:29:47;2.58;;;1.35;;
52456;SDS011;38369;52.840;7.082;2023-03-05T12:35:26;9.30;;;1.52;;
52456;SDS011;38369;52.840;7.082;2023-03-05T12:40:21;7.75;;;1.30;;
52456;SDS011;38369;52.840;7.082;2023-03-05T12:47:40;8.52;;;1.88;;
52456;SDS011;38369;52.840;7.082;2023-03-05T12:52:52;6.95;;;1.73;;
52456;SDS011;38369;52.840;7.082;2023-03-05T12:57:49;2.40;;;1.15;;
52456;SDS011;38369;52.840;7.082;2023-03-05T13:01:01;6.72;;;1.40;;
52456;SDS011;38369;52.840;7.082;2023-03-05T13:03:26;11.90;;;1.85;;
52456;SDS011;38369;52.840;7.082;2023-03-05T13:05:55;5.65;;;1.55;;
52456;SDS011;38369;52.840;7.082;2023-03-05T13:08:23;3.63;;;1.88;;
52456;SDS011;38369;52.840;7.082;2023-03-05T13:10:53;5.20;;;2.05;;
52456;SDS011;38369;52.840;7.082;2023-03-05T13:13:20;8.43;;;2.70;;
52456;SDS011;38369;52.840;7.082;2023-03-05T13:15:47;3.42;;;1.17;;
52456;SDS011;38369;52.840;7.082;2023-03-05T13:18:32;5.60;;;1.92;;
52456;SDS011;38369;52.840;7.082;2023-03-05T13:21:11;4.07;;;1.25;;
52456;SDS011;38369;52.840;7.082;2023-03-05T13:23:44;3.33;;;1.10;;
52456;SDS011;38369;52.840;7.082;2023-03-05T13:26:12;3.42;;;0.98;;
52456;SDS011;38369;52.840;7.082;2023-03-05T13:28:39;2.28;;;1.13;;
52456;SDS011;38369;52.840;7.082;2023-03-05T13:31:24;5.65;;;2.13;;
52456;SDS011;38369;52.840;7.082;2023-03-05T13:33:52;5.32;;;1.55;;
52456;SDS011;38369;52.840;7.082;2023-03-05T13:36:19;7.80;;;2.08;;
52456;SDS011;38369;52.840;7.082;2023-03-05T13:38:45;5.68;;;1.40;;
52456;SDS011;38369;52.840;7.082;2023-03-05T13:41:25;3.90;;;1.67;;
52456;SDS011;38369;52.840;7.082;2023-03-05T13:43:56;6.63;;;1.00;;
52456;SDS011;38369;52.840;7.082;2023-03-05T13:48:48;2.25;;;1.02;;
52456;SDS011;38369;52.840;7.082;2023-03-05T13:51:15;3.42;;;1.08;;
52456;SDS011;38369;52.840;7.082;2023-03-05T13:53:41;1.85;;;0.80;;
52456;SDS011;38369;52.840;7.082;2023-03-05T13:56:11;4.18;;;1.00;;
52456;SDS011;38369;52.840;7.082;2023-03-05T14:03:52;2.22;;;1.08;;
52456;SDS011;38369;52.840;7.082;2023-03-05T14:06:21;5.13;;;1.30;;
52456;SDS011;38369;52.840;7.082;2023-03-05T14:08:48;4.65;;;1.17;;
52456;SDS011;38369;52.840;7.082;2023-03-05T14:11:16;4.75;;;1.13;;
52456;SDS011;38369;52.840;7.082;2023-03-05T14:13:43;4.80;;;1.75;;
52456;SDS011;38369;52.840;7.082;2023-03-05T14:16:10;6.28;;;1.30;;
52456;SDS011;38369;52.840;7.082;2023-03-05T14:18:38;3.35;;;1.10;;
52456;SDS011;38369;52.840;7.082;2023-03-05T14:28:42;4.07;;;1.65;;
52456;SDS011;38369;52.840;7.082;2023-03-05T14:31:13;6.50;;;1.55;;
52456;SDS011;38369;52.840;7.082;2023-03-05T14:33:40;3.88;;;1.50;;
52456;SDS011;38369;52.840;7.082;2023-03-05T14:36:06;5.50;;;1.42;;
52456;SDS011;38369;52.840;7.082;2023-03-05T14:38:33;3.20;;;1.17;;
52456;SDS011;38369;52.840;7.082;2023-03-05T14:43:44;5.60;;;1.70;;
52456;SDS011;38369;52.840;7.082;2023-03-05T14:46:10;7.25;;;1.38;;
52456;SDS011;38369;52.840;7.082;2023-03-05T14:48:37;7.28;;;2.03;;
52456;SDS011;38369;52.840;7.082;2023-03-05T14:51:03;4.88;;;1.10;;
52456;SDS011;38369;52.840;7.082;2023-03-05T14:53:41;3.10;;;1.20;;
52456;SDS011;38369;52.840;7.082;2023-03-05T14:56:27;6.57;;;3.03;;
52456;SDS011;38369;52.840;7.082;2023-03-05T14:58:54;6.55;;;1.10;;
52456;SDS011;38369;52.840;7.082;2023-03-05T15:01:21;5.07;;;1.77;;
52456;SDS011;38369;52.840;7.082;2023-03-05T15:03:48;3.78;;;1.90;;
52456;SDS011;38369;52.840;7.082;2023-03-05T15:06:27;8.40;;;2.28;;
52456;SDS011;38369;52.840;7.082;2023-03-05T15:08:55;4.45;;;1.40;;
52456;SDS011;38369;52.840;7.082;2023-03-05T15:11:22;3.00;;;1.80;;
52456;SDS011;38369;52.840;7.082;2023-03-05T15:13:48;4.80;;;1.23;;
52456;SDS011;38369;52.840;7.082;2023-03-05T15:16:14;4.82;;;1.13;;
52456;SDS011;38369;52.840;7.082;2023-03-05T15:18:41;3.92;;;1.52;;
52456;SDS011;38369;52.840;7.082;2023-03-05T15:21:07;5.75;;;1.60;;
52456;SDS011;38369;52.840;7.082;2023-03-05T15:23:34;1.67;;;1.23;;
52456;SDS011;38369;52.840;7.082;2023-03-05T15:26:03;3.08;;;1.40;;
52456;SDS011;38369;52.840;7.082;2023-03-05T15:28:34;2.88;;;1.55;;
52456;SDS011;38369;52.840;7.082;2023-03-05T15:31:00;5.45;;;1.63;;
52456;SDS011;38369;52.840;7.082;2023-03-05T15:33:27;3.03;;;1.15;;
52456;SDS011;38369;52.840;7.082;2023-03-05T15:35:53;11.20;;;2.35;;
52456;SDS011;38369;52.840;7.082;2023-03-05T15:38:19;5.57;;;1.52;;
52456;SDS011;38369;52.840;7.082;2023-03-05T15:40:45;8.32;;;2.55;;
52456;SDS011;38369;52.840;7.082;2023-03-05T15:43:11;7.30;;;1.98;;
52456;SDS011;38369;52.840;7.082;2023-03-05T15:45:38;3.83;;;1.65;;
52456;SDS011;38369;52.840;7.082;2023-03-05T15:48:04;2.88;;;1.33;;
52456;SDS011;38369;52.840;7.082;2023-03-05T15:50:30;7.50;;;1.65;;
52456;SDS011;38369;52.840;7.082;2023-03-05T15:52:56;6.82;;;1.80;;
52456;SDS011;38369;52.840;7.082;2023-03-05T15:55:22;4.53;;;1.33;;
52456;SDS011;38369;52.840;7.082;2023-03-05T15:57:49;4.25;;;1.67;;
52456;SDS011;38369;52.840;7.082;2023-03-05T16:00:17;7.40;;;3.85;;
52456;SDS011;38369;52.840;7.082;2023-03-05T16:02:43;10.68;;;1.77;;
52456;SDS011;38369;52.840;7.082;2023-03-05T16:05:09;7.88;;;1.85;;
52456;SDS011;38369;52.840;7.082;2023-03-05T16:07:36;10.40;;;2.25;;
52456;SDS011;38369;52.840;7.082;2023-03-05T16:10:03;4.45;;;1.40;;
52456;SDS011;38369;52.840;7.082;2023-03-05T16:12:31;6.43;;;1.95;;
52456;SDS011;38369;52.840;7.082;2023-03-05T16:15:01;3.65;;;1.33;;
52456;SDS011;38369;52.840;7.082;2023-03-05T16:17:27;4.57;;;1.27;;
52456;SDS011;38369;52.840;7.082;2023-03-05T16:19:53;2.67;;;1.60;;
52456;SDS011;38369;52.840;7.082;2023-03-05T16:22:20;9.27;;;1.50;;
52456;SDS011;38369;52.840;7.082;2023-03-05T16:24:47;3.95;;;1.75;;